Terminal Aerodrome Forecast
Issued by NWS Twin Cities, MN

Home | Current Version | Previous Version | Text Only | Print | Product List | Glossary Off
Versions: 1 2 3 4 5 6 7 8 9 10 11 12 13 14 15

000
FTUS43 KMPX 301100
TAFEAU
TAF
KEAU 301139Z 3012/3112 30004KT 6SM BR OVC002
     FM301400 32007KT P6SM SCT050
     FM301800 31009KT P6SM VCSH BKN050
     FM310100 30003KT P6SM SKC=

USA.gov is the U.S. government's official web portal to all federal, state and local government web resources and services.